sensor_id;sensor_type;location;lat;lon;timestamp;P1;durP1;ratioP1;P2;durP2;ratioP2
13975;SDS011;7062;49.792;9.946;2024-01-07T00:01:56;11.27;;;9.37;;
13975;SDS011;7062;49.792;9.946;2024-01-07T00:04:22;11.30;;;9.97;;
13975;SDS011;7062;49.792;9.946;2024-01-07T00:06:48;12.17;;;10.03;;
13975;SDS011;7062;49.792;9.946;2024-01-07T00:09:13;10.40;;;9.10;;
13975;SDS011;7062;49.792;9.946;2024-01-07T00:11:39;10.47;;;9.27;;
13975;SDS011;7062;49.792;9.946;2024-01-07T00:14:05;9.40;;;8.50;;
13975;SDS011;7062;49.792;9.946;2024-01-07T00:16:31;10.27;;;9.17;;
13975;SDS011;7062;49.792;9.946;2024-01-07T00:18:57;10.47;;;8.13;;
13975;SDS011;7062;49.792;9.946;2024-01-07T00:21:23;12.93;;;9.93;;
13975;SDS011;7062;49.792;9.946;2024-01-07T00:23:49;12.50;;;8.70;;
13975;SDS011;7062;49.792;9.946;2024-01-07T00:26:15;9.00;;;8.10;;
13975;SDS011;7062;49.792;9.946;2024-01-07T00:28:40;12.27;;;9.30;;
13975;SDS011;7062;49.792;9.946;2024-01-07T00:31:06;12.33;;;8.57;;
13975;SDS011;7062;49.792;9.946;2024-01-07T00:33:35;10.50;;;8.37;;
13975;SDS011;7062;49.792;9.946;2024-01-07T00:36:02;13.43;;;8.93;;
13975;SDS011;7062;49.792;9.946;2024-01-07T00:38:29;11.63;;;7.10;;
13975;SDS011;7062;49.792;9.946;2024-01-07T00:40:54;9.87;;;7.57;;
13975;SDS011;7062;49.792;9.946;2024-01-07T00:43:20;9.83;;;8.33;;
13975;SDS011;7062;49.792;9.946;2024-01-07T00:45:46;8.03;;;7.07;;
13975;SDS011;7062;49.792;9.946;2024-01-07T00:48:11;10.53;;;8.93;;
13975;SDS011;7062;49.792;9.946;2024-01-07T00:50:38;10.40;;;8.90;;
13975;SDS011;7062;49.792;9.946;2024-01-07T00:53:04;10.73;;;8.00;;
13975;SDS011;7062;49.792;9.946;2024-01-07T00:55:33;9.53;;;8.03;;
13975;SDS011;7062;49.792;9.946;2024-01-07T00:58:00;10.60;;;7.77;;
13975;SDS011;7062;49.792;9.946;2024-01-07T01:00:26;12.27;;;7.83;;
13975;SDS011;7062;49.792;9.946;2024-01-07T01:02:53;6.90;;;6.20;;
13975;SDS011;7062;49.792;9.946;2024-01-07T01:05:18;9.60;;;6.90;;
13975;SDS011;7062;49.792;9.946;2024-01-07T01:07:44;8.80;;;6.67;;
13975;SDS011;7062;49.792;9.946;2024-01-07T01:10:09;6.93;;;6.23;;
13975;SDS011;7062;49.792;9.946;2024-01-07T01:12:35;5.57;;;5.07;;
13975;SDS011;7062;49.792;9.946;2024-01-07T01:15:01;7.53;;;6.13;;
13975;SDS011;7062;49.792;9.946;2024-01-07T01:17:26;7.00;;;6.07;;
13975;SDS011;7062;49.792;9.946;2024-01-07T01:19:52;8.67;;;6.33;;
13975;SDS011;7062;49.792;9.946;2024-01-07T01:22:17;10.63;;;7.30;;
13975;SDS011;7062;49.792;9.946;2024-01-07T01:24:43;6.23;;;5.63;;
13975;SDS011;7062;49.792;9.946;2024-01-07T01:27:11;8.33;;;6.40;;
13975;SDS011;7062;49.792;9.946;2024-01-07T01:29:38;9.57;;;5.40;;
13975;SDS011;7062;49.792;9.946;2024-01-07T01:32:05;10.53;;;6.57;;
13975;SDS011;7062;49.792;9.946;2024-01-07T01:34:31;8.70;;;6.37;;
13975;SDS011;7062;49.792;9.946;2024-01-07T01:36:57;8.23;;;7.17;;
13975;SDS011;7062;49.792;9.946;2024-01-07T01:39:22;7.00;;;6.13;;
13975;SDS011;7062;49.792;9.946;2024-01-07T01:41:48;10.67;;;7.53;;
13975;SDS011;7062;49.792;9.946;2024-01-07T01:44:13;9.57;;;7.30;;
13975;SDS011;7062;49.792;9.946;2024-01-07T01:46:39;11.60;;;7.87;;
13975;SDS011;7062;49.792;9.946;2024-01-07T01:49:06;7.77;;;6.10;;
13975;SDS011;7062;49.792;9.946;2024-01-07T01:51:32;7.30;;;6.20;;
13975;SDS011;7062;49.792;9.946;2024-01-07T01:53:58;7.30;;;5.93;;
13975;SDS011;7062;49.792;9.946;2024-01-07T01:56:25;9.03;;;7.23;;
13975;SDS011;7062;49.792;9.946;2024-01-07T01:58:53;7.80;;;6.87;;
13975;SDS011;7062;49.792;9.946;2024-01-07T02:01:19;7.87;;;6.50;;
13975;SDS011;7062;49.792;9.946;2024-01-07T02:03:45;6.23;;;5.63;;
13975;SDS011;7062;49.792;9.946;2024-01-07T02:06:11;9.20;;;5.80;;
13975;SDS011;7062;49.792;9.946;2024-01-07T02:08:37;11.27;;;6.90;;
13975;SDS011;7062;49.792;9.946;2024-01-07T02:11:13;9.63;;;7.97;;
13975;SDS011;7062;49.792;9.946;2024-01-07T02:13:43;10.73;;;7.00;;
13975;SDS011;7062;49.792;9.946;2024-01-07T02:16:09;10.07;;;6.00;;
13975;SDS011;7062;49.792;9.946;2024-01-07T02:18:35;7.57;;;6.70;;
13975;SDS011;7062;49.792;9.946;2024-01-07T02:21:00;10.77;;;6.50;;
13975;SDS011;7062;49.792;9.946;2024-01-07T02:23:26;8.20;;;7.03;;
13975;SDS011;7062;49.792;9.946;2024-01-07T02:25:51;6.70;;;5.93;;
13975;SDS011;7062;49.792;9.946;2024-01-07T02:28:17;8.33;;;7.47;;
13975;SDS011;7062;49.792;9.946;2024-01-07T02:30:43;6.97;;;6.37;;
13975;SDS011;7062;49.792;9.946;2024-01-07T02:33:08;9.40;;;6.60;;
13975;SDS011;7062;49.792;9.946;2024-01-07T02:35:34;7.03;;;6.43;;
13975;SDS011;7062;49.792;9.946;2024-01-07T02:37:59;7.50;;;5.57;;
13975;SDS011;7062;49.792;9.946;2024-01-07T02:40:25;6.90;;;6.27;;
13975;SDS011;7062;49.792;9.946;2024-01-07T02:42:51;8.93;;;7.57;;
13975;SDS011;7062;49.792;9.946;2024-01-07T02:45:16;7.23;;;6.17;;
13975;SDS011;7062;49.792;9.946;2024-01-07T02:47:42;7.20;;;6.10;;
13975;SDS011;7062;49.792;9.946;2024-01-07T02:50:07;8.27;;;5.90;;
13975;SDS011;7062;49.792;9.946;2024-01-07T02:52:33;8.50;;;6.90;;
13975;SDS011;7062;49.792;9.946;2024-01-07T02:54:59;8.10;;;7.30;;
13975;SDS011;7062;49.792;9.946;2024-01-07T02:57:26;8.13;;;6.47;;
13975;SDS011;7062;49.792;9.946;2024-01-07T02:59:52;7.77;;;6.00;;
13975;SDS011;7062;49.792;9.946;2024-01-07T03:02:18;7.23;;;6.17;;
13975;SDS011;7062;49.792;9.946;2024-01-07T03:04:43;7.77;;;6.60;;
13975;SDS011;7062;49.792;9.946;2024-01-07T03:07:09;7.03;;;5.70;;
13975;SDS011;7062;49.792;9.946;2024-01-07T03:09:35;7.20;;;6.43;;
13975;SDS011;7062;49.792;9.946;2024-01-07T03:12:00;7.00;;;5.97;;
13975;SDS011;7062;49.792;9.946;2024-01-07T03:14:26;7.60;;;6.20;;
13975;SDS011;7062;49.792;9.946;2024-01-07T03:16:52;7.07;;;5.90;;
13975;SDS011;7062;49.792;9.946;2024-01-07T03:19:17;7.37;;;6.20;;
13975;SDS011;7062;49.792;9.946;2024-01-07T03:21:43;7.17;;;5.80;;
13975;SDS011;7062;49.792;9.946;2024-01-07T03:24:09;8.57;;;6.23;;
13975;SDS011;7062;49.792;9.946;2024-01-07T03:26:35;8.97;;;6.50;;
13975;SDS011;7062;49.792;9.946;2024-01-07T03:29:01;6.47;;;5.77;;
13975;SDS011;7062;49.792;9.946;2024-01-07T03:31:27;7.63;;;5.90;;
13975;SDS011;7062;49.792;9.946;2024-01-07T03:33:53;7.13;;;5.40;;
13975;SDS011;7062;49.792;9.946;2024-01-07T03:36:19;8.00;;;6.33;;
13975;SDS011;7062;49.792;9.946;2024-01-07T03:38:44;8.10;;;6.90;;
13975;SDS011;7062;49.792;9.946;2024-01-07T03:41:15;8.67;;;6.37;;
13975;SDS011;7062;49.792;9.946;2024-01-07T03:43:42;8.67;;;6.60;;
13975;SDS011;7062;49.792;9.946;2024-01-07T03:46:07;9.27;;;6.47;;
13975;SDS011;7062;49.792;9.946;2024-01-07T03:48:33;6.83;;;5.67;;
13975;SDS011;7062;49.792;9.946;2024-01-07T03:50:58;7.53;;;6.13;;
13975;SDS011;7062;49.792;9.946;2024-01-07T03:53:24;9.90;;;6.77;;
13975;SDS011;7062;49.792;9.946;2024-01-07T03:55:50;8.43;;;6.57;;
13975;SDS011;7062;49.792;9.946;2024-01-07T03:58:15;8.57;;;6.63;;
13975;SDS011;7062;49.792;9.946;2024-01-07T04:00:41;8.30;;;6.87;;
13975;SDS011;7062;49.792;9.946;2024-01-07T04:03:07;10.07;;;6.73;;
13975;SDS011;7062;49.792;9.946;2024-01-07T04:05:32;9.47;;;6.97;;
13975;SDS011;7062;49.792;9.946;2024-01-07T04:08:00;7.17;;;6.40;;
13975;SDS011;7062;49.792;9.946;2024-01-07T04:10:26;8.43;;;6.87;;
13975;SDS011;7062;49.792;9.946;2024-01-07T04:12:52;7.30;;;6.50;;
13975;SDS011;7062;49.792;9.946;2024-01-07T04:15:17;11.37;;;7.17;;
13975;SDS011;7062;49.792;9.946;2024-01-07T04:17:43;10.17;;;8.07;;
13975;SDS011;7062;49.792;9.946;2024-01-07T04:20:12;8.30;;;7.50;;
13975;SDS011;7062;49.792;9.946;2024-01-07T04:22:38;8.77;;;6.85;;
13975;SDS011;7062;49.792;9.946;2024-01-07T04:25:04;9.90;;;7.77;;
13975;SDS011;7062;49.792;9.946;2024-01-07T04:27:33;8.17;;;7.37;;
13975;SDS011;7062;49.792;9.946;2024-01-07T04:30:01;8.93;;;6.87;;
13975;SDS011;7062;49.792;9.946;2024-01-07T04:32:27;9.80;;;6.77;;
13975;SDS011;7062;49.792;9.946;2024-01-07T04:34:53;7.93;;;6.40;;
13975;SDS011;7062;49.792;9.946;2024-01-07T04:37:19;9.77;;;7.30;;
13975;SDS011;7062;49.792;9.946;2024-01-07T04:39:44;8.30;;;6.63;;
13975;SDS011;7062;49.792;9.946;2024-01-07T04:42:10;7.70;;;5.30;;
13975;SDS011;7062;49.792;9.946;2024-01-07T04:44:35;7.73;;;6.40;;
13975;SDS011;7062;49.792;9.946;2024-01-07T04:47:01;7.90;;;4.87;;
13975;SDS011;7062;49.792;9.946;2024-01-07T04:49:27;9.90;;;5.50;;
13975;SDS011;7062;49.792;9.946;2024-01-07T04:51:52;9.47;;;5.27;;
13975;SDS011;7062;49.792;9.946;2024-01-07T04:54:18;6.47;;;5.00;;
13975;SDS011;7062;49.792;9.946;2024-01-07T04:56:44;7.03;;;6.13;;
13975;SDS011;7062;49.792;9.946;2024-01-07T04:59:09;6.03;;;4.97;;
13975;SDS011;7062;49.792;9.946;2024-01-07T05:01:35;6.23;;;4.67;;
13975;SDS011;7062;49.792;9.946;2024-01-07T05:04:01;6.53;;;5.30;;
13975;SDS011;7062;49.792;9.946;2024-01-07T05:06:27;8.35;;;5.95;;
13975;SDS011;7062;49.792;9.946;2024-01-07T05:08:53;7.20;;;5.47;;
13975;SDS011;7062;49.792;9.946;2024-01-07T05:11:18;7.77;;;5.83;;
13975;SDS011;7062;49.792;9.946;2024-01-07T05:13:44;7.53;;;5.17;;
13975;SDS011;7062;49.792;9.946;2024-01-07T05:16:17;6.60;;;5.53;;
13975;SDS011;7062;49.792;9.946;2024-01-07T05:18:46;7.35;;;5.07;;
13975;SDS011;7062;49.792;9.946;2024-01-07T05:21:14;6.93;;;5.53;;
13975;SDS011;7062;49.792;9.946;2024-01-07T05:23:41;6.27;;;5.63;;
13975;SDS011;7062;49.792;9.946;2024-01-07T05:26:06;6.07;;;4.90;;
13975;SDS011;7062;49.792;9.946;2024-01-07T05:28:32;4.97;;;4.40;;
13975;SDS011;7062;49.792;9.946;2024-01-07T05:30:57;5.07;;;4.10;;
13975;SDS011;7062;49.792;9.946;2024-01-07T05:33:23;4.97;;;3.67;;
13975;SDS011;7062;49.792;9.946;2024-01-07T05:35:49;4.57;;;3.73;;
13975;SDS011;7062;49.792;9.946;2024-01-07T05:38:14;2.97;;;2.63;;
13975;SDS011;7062;49.792;9.946;2024-01-07T05:40:40;5.43;;;2.87;;
13975;SDS011;7062;49.792;9.946;2024-01-07T05:43:06;3.60;;;2.47;;
13975;SDS011;7062;49.792;9.946;2024-01-07T05:45:31;3.47;;;3.13;;
13975;SDS011;7062;49.792;9.946;2024-01-07T05:47:57;3.57;;;2.90;;
13975;SDS011;7062;49.792;9.946;2024-01-07T05:50:22;4.80;;;2.97;;
13975;SDS011;7062;49.792;9.946;2024-01-07T05:52:48;4.77;;;2.63;;
13975;SDS011;7062;49.792;9.946;2024-01-07T05:55:14;5.77;;;3.30;;
13975;SDS011;7062;49.792;9.946;2024-01-07T05:57:39;4.17;;;2.73;;
13975;SDS011;7062;49.792;9.946;2024-01-07T06:00:05;4.23;;;3.40;;
13975;SDS011;7062;49.792;9.946;2024-01-07T06:02:31;3.55;;;2.42;;
13975;SDS011;7062;49.792;9.946;2024-01-07T06:04:59;3.90;;;2.78;;
13975;SDS011;7062;49.792;9.946;2024-01-07T06:07:25;3.33;;;2.67;;
13975;SDS011;7062;49.792;9.946;2024-01-07T06:09:50;3.53;;;2.63;;
13975;SDS011;7062;49.792;9.946;2024-01-07T06:12:16;3.47;;;2.37;;
13975;SDS011;7062;49.792;9.946;2024-01-07T06:14:41;4.77;;;3.20;;
13975;SDS011;7062;49.792;9.946;2024-01-07T06:17:07;3.80;;;2.93;;
13975;SDS011;7062;49.792;9.946;2024-01-07T06:19:33;5.33;;;3.00;;
13975;SDS011;7062;49.792;9.946;2024-01-07T06:21:59;4.15;;;3.35;;
13975;SDS011;7062;49.792;9.946;2024-01-07T06:24:24;4.10;;;3.03;;
13975;SDS011;7062;49.792;9.946;2024-01-07T06:26:50;3.30;;;3.00;;
13975;SDS011;7062;49.792;9.946;2024-01-07T06:29:16;3.30;;;2.90;;
13975;SDS011;7062;49.792;9.946;2024-01-07T06:31:44;3.40;;;2.53;;
13975;SDS011;7062;49.792;9.946;2024-01-07T06:34:11;3.20;;;2.70;;
13975;SDS011;7062;49.792;9.946;2024-01-07T06:36:40;3.65;;;2.70;;
13975;SDS011;7062;49.792;9.946;2024-01-07T06:39:07;3.60;;;2.83;;
13975;SDS011;7062;49.792;9.946;2024-01-07T06:41:34;3.72;;;2.55;;
13975;SDS011;7062;49.792;9.946;2024-01-07T06:44:00;3.30;;;2.72;;
13975;SDS011;7062;49.792;9.946;2024-01-07T06:46:26;4.85;;;2.70;;
13975;SDS011;7062;49.792;9.946;2024-01-07T06:48:52;4.90;;;2.60;;
13975;SDS011;7062;49.792;9.946;2024-01-07T06:51:17;5.47;;;2.97;;
13975;SDS011;7062;49.792;9.946;2024-01-07T06:53:43;4.77;;;3.33;;
13975;SDS011;7062;49.792;9.946;2024-01-07T06:56:09;4.53;;;3.03;;
13975;SDS011;7062;49.792;9.946;2024-01-07T06:58:34;3.77;;;2.87;;
13975;SDS011;7062;49.792;9.946;2024-01-07T07:01:00;4.63;;;3.40;;
13975;SDS011;7062;49.792;9.946;2024-01-07T07:03:26;3.53;;;3.10;;
13975;SDS011;7062;49.792;9.946;2024-01-07T07:05:51;3.93;;;3.30;;
13975;SDS011;7062;49.792;9.946;2024-01-07T07:08:17;4.97;;;4.03;;
13975;SDS011;7062;49.792;9.946;2024-01-07T07:10:42;4.97;;;4.13;;
13975;SDS011;7062;49.792;9.946;2024-01-07T07:13:08;7.00;;;5.27;;
13975;SDS011;7062;49.792;9.946;2024-01-07T07:15:34;8.07;;;5.17;;
13975;SDS011;7062;49.792;9.946;2024-01-07T07:17:59;6.40;;;5.10;;
13975;SDS011;7062;49.792;9.946;2024-01-07T07:20:25;7.40;;;5.30;;
13975;SDS011;7062;49.792;9.946;2024-01-07T07:22:50;5.90;;;5.30;;
13975;SDS011;7062;49.792;9.946;2024-01-07T07:25:16;6.53;;;4.60;;
13975;SDS011;7062;49.792;9.946;2024-01-07T07:27:42;5.57;;;4.17;;
13975;SDS011;7062;49.792;9.946;2024-01-07T07:30:08;4.35;;;3.42;;
13975;SDS011;7062;49.792;9.946;2024-01-07T07:32:34;4.20;;;3.50;;
13975;SDS011;7062;49.792;9.946;2024-01-07T07:35:00;6.03;;;4.28;;
13975;SDS011;7062;49.792;9.946;2024-01-07T07:37:26;4.50;;;3.93;;
13975;SDS011;7062;49.792;9.946;2024-01-07T07:39:51;5.77;;;4.20;;
13975;SDS011;7062;49.792;9.946;2024-01-07T07:42:17;4.73;;;3.60;;
13975;SDS011;7062;49.792;9.946;2024-01-07T07:44:43;5.30;;;3.63;;
13975;SDS011;7062;49.792;9.946;2024-01-07T07:47:08;5.77;;;4.03;;
13975;SDS011;7062;49.792;9.946;2024-01-07T07:49:36;5.80;;;3.90;;
13975;SDS011;7062;49.792;9.946;2024-01-07T07:52:05;4.15;;;3.53;;
13975;SDS011;7062;49.792;9.946;2024-01-07T07:54:32;6.10;;;3.85;;
13975;SDS011;7062;49.792;9.946;2024-01-07T07:56:57;5.53;;;3.57;;
13975;SDS011;7062;49.792;9.946;2024-01-07T07:59:23;3.97;;;3.33;;
13975;SDS011;7062;49.792;9.946;2024-01-07T08:01:49;4.47;;;3.33;;
13975;SDS011;7062;49.792;9.946;2024-01-07T08:04:15;5.68;;;3.55;;
13975;SDS011;7062;49.792;9.946;2024-01-07T08:06:40;5.60;;;3.90;;
13975;SDS011;7062;49.792;9.946;2024-01-07T08:09:07;5.47;;;4.00;;
13975;SDS011;7062;49.792;9.946;2024-01-07T08:11:33;6.37;;;4.27;;
13975;SDS011;7062;49.792;9.946;2024-01-07T08:13:59;6.00;;;4.40;;
13975;SDS011;7062;49.792;9.946;2024-01-07T08:16:26;5.18;;;4.22;;
13975;SDS011;7062;49.792;9.946;2024-01-07T08:18:52;5.57;;;4.30;;
13975;SDS011;7062;49.792;9.946;2024-01-07T08:21:21;5.03;;;3.70;;
13975;SDS011;7062;49.792;9.946;2024-01-07T08:23:48;5.28;;;4.55;;
13975;SDS011;7062;49.792;9.946;2024-01-07T08:26:23;5.60;;;4.00;;
13975;SDS011;7062;49.792;9.946;2024-01-07T08:28:48;5.15;;;4.65;;
13975;SDS011;7062;49.792;9.946;2024-01-07T08:31:14;4.93;;;4.30;;
13975;SDS011;7062;49.792;9.946;2024-01-07T08:33:39;6.53;;;4.87;;
13975;SDS011;7062;49.792;9.946;2024-01-07T08:36:05;6.40;;;5.30;;
13975;SDS011;7062;49.792;9.946;2024-01-07T08:38:31;6.40;;;5.35;;
13975;SDS011;7062;49.792;9.946;2024-01-07T08:40:57;7.10;;;4.70;;
13975;SDS011;7062;49.792;9.946;2024-01-07T08:43:22;6.23;;;4.70;;
13975;SDS011;7062;49.792;9.946;2024-01-07T08:45:49;7.47;;;5.88;;
13975;SDS011;7062;49.792;9.946;2024-01-07T08:48:15;6.82;;;5.32;;
13975;SDS011;7062;49.792;9.946;2024-01-07T08:50:41;5.63;;;4.77;;
13975;SDS011;7062;49.792;9.946;2024-01-07T08:53:06;6.33;;;5.17;;
13975;SDS011;7062;49.792;9.946;2024-01-07T08:55:32;6.67;;;5.37;;
13975;SDS011;7062;49.792;9.946;2024-01-07T08:57:58;6.97;;;5.20;;
13975;SDS011;7062;49.792;9.946;2024-01-07T09:00:24;6.82;;;5.05;;
13975;SDS011;7062;49.792;9.946;2024-01-07T09:02:52;5.78;;;4.95;;
13975;SDS011;7062;49.792;9.946;2024-01-07T09:05:18;6.00;;;5.25;;
13975;SDS011;7062;49.792;9.946;2024-01-07T09:07:43;7.73;;;5.07;;
13975;SDS011;7062;49.792;9.946;2024-01-07T09:10:09;6.73;;;4.67;;
13975;SDS011;7062;49.792;9.946;2024-01-07T09:12:36;6.70;;;5.38;;
13975;SDS011;7062;49.792;9.946;2024-01-07T09:15:03;6.78;;;4.85;;
13975;SDS011;7062;49.792;9.946;2024-01-07T09:17:29;7.97;;;6.75;;
13975;SDS011;7062;49.792;9.946;2024-01-07T09:19:56;9.00;;;6.00;;
13975;SDS011;7062;49.792;9.946;2024-01-07T09:22:21;6.77;;;5.30;;
13975;SDS011;7062;49.792;9.946;2024-01-07T09:24:47;8.50;;;5.50;;
13975;SDS011;7062;49.792;9.946;2024-01-07T09:27:13;7.73;;;5.90;;
13975;SDS011;7062;49.792;9.946;2024-01-07T09:29:39;7.05;;;6.22;;
13975;SDS011;7062;49.792;9.946;2024-01-07T09:32:04;6.80;;;5.63;;
13975;SDS011;7062;49.792;9.946;2024-01-07T09:34:30;6.65;;;5.75;;
13975;SDS011;7062;49.792;9.946;2024-01-07T09:36:56;8.20;;;6.60;;
13975;SDS011;7062;49.792;9.946;2024-01-07T09:39:22;6.60;;;5.90;;
13975;SDS011;7062;49.792;9.946;2024-01-07T09:41:47;11.17;;;6.80;;
13975;SDS011;7062;49.792;9.946;2024-01-07T09:44:13;7.40;;;6.03;;
13975;SDS011;7062;49.792;9.946;2024-01-07T09:46:39;5.93;;;5.33;;
13975;SDS011;7062;49.792;9.946;2024-01-07T09:49:06;6.90;;;6.28;;
13975;SDS011;7062;49.792;9.946;2024-01-07T09:51:33;8.40;;;6.53;;
13975;SDS011;7062;49.792;9.946;2024-01-07T09:54:02;8.23;;;6.75;;
13975;SDS011;7062;49.792;9.946;2024-01-07T09:56:34;7.25;;;6.05;;
13975;SDS011;7062;49.792;9.946;2024-01-07T09:59:07;10.55;;;7.05;;
13975;SDS011;7062;49.792;9.946;2024-01-07T10:01:33;8.00;;;6.60;;
13975;SDS011;7062;49.792;9.946;2024-01-07T10:04:00;6.72;;;5.55;;
13975;SDS011;7062;49.792;9.946;2024-01-07T10:06:26;7.60;;;5.97;;
13975;SDS011;7062;49.792;9.946;2024-01-07T10:08:52;8.83;;;6.57;;
13975;SDS011;7062;49.792;9.946;2024-01-07T10:11:18;7.40;;;6.33;;
13975;SDS011;7062;49.792;9.946;2024-01-07T10:13:46;8.77;;;6.77;;
13975;SDS011;7062;49.792;9.946;2024-01-07T10:16:16;8.35;;;6.60;;
13975;SDS011;7062;49.792;9.946;2024-01-07T10:18:42;6.67;;;5.77;;
13975;SDS011;7062;49.792;9.946;2024-01-07T10:21:08;8.00;;;6.33;;
13975;SDS011;7062;49.792;9.946;2024-01-07T10:23:33;7.87;;;6.10;;
13975;SDS011;7062;49.792;9.946;2024-01-07T10:25:59;6.20;;;5.60;;
13975;SDS011;7062;49.792;9.946;2024-01-07T10:28:27;8.88;;;6.90;;
13975;SDS011;7062;49.792;9.946;2024-01-07T10:30:52;8.20;;;5.30;;
13975;SDS011;7062;49.792;9.946;2024-01-07T10:33:18;10.23;;;6.93;;
13975;SDS011;7062;49.792;9.946;2024-01-07T10:35:46;8.50;;;6.38;;
13975;SDS011;7062;49.792;9.946;2024-01-07T10:38:18;8.77;;;6.45;;
13975;SDS011;7062;49.792;9.946;2024-01-07T10:40:45;8.57;;;6.78;;
13975;SDS011;7062;49.792;9.946;2024-01-07T10:43:12;10.95;;;6.88;;
13975;SDS011;7062;49.792;9.946;2024-01-07T10:45:40;8.57;;;6.63;;
13975;SDS011;7062;49.792;9.946;2024-01-07T10:48:06;7.38;;;5.70;;
13975;SDS011;7062;49.792;9.946;2024-01-07T10:50:35;7.43;;;6.30;;
13975;SDS011;7062;49.792;9.946;2024-01-07T10:53:03;7.55;;;6.20;;
13975;SDS011;7062;49.792;9.946;2024-01-07T10:55:33;8.38;;;6.75;;
13975;SDS011;7062;49.792;9.946;2024-01-07T10:58:01;6.95;;;5.50;;
13975;SDS011;7062;49.792;9.946;2024-01-07T11:00:29;8.02;;;5.70;;
13975;SDS011;7062;49.792;9.946;2024-01-07T11:08:18;9.68;;;6.50;;
13975;SDS011;7062;49.792;9.946;2024-01-07T11:10:50;9.10;;;5.80;;
13975;SDS011;7062;49.792;9.946;2024-01-07T11:13:38;6.75;;;5.38;;
13975;SDS011;7062;49.792;9.946;2024-01-07T11:16:07;6.68;;;5.72;;
13975;SDS011;7062;49.792;9.946;2024-01-07T11:18:39;6.57;;;5.53;;
13975;SDS011;7062;49.792;9.946;2024-01-07T11:21:10;7.13;;;5.22;;
13975;SDS011;7062;49.792;9.946;2024-01-07T11:23:45;7.10;;;6.40;;
13975;SDS011;7062;49.792;9.946;2024-01-07T11:26:11;6.45;;;4.97;;
13975;SDS011;7062;49.792;9.946;2024-01-07T11:28:53;5.97;;;5.35;;
13975;SDS011;7062;49.792;9.946;2024-01-07T11:34:04;8.35;;;5.35;;
13975;SDS011;7062;49.792;9.946;2024-01-07T11:36:34;6.22;;;4.90;;
13975;SDS011;7062;49.792;9.946;2024-01-07T11:39:01;7.72;;;4.82;;
13975;SDS011;7062;49.792;9.946;2024-01-07T11:41:28;6.55;;;5.43;;
13975;SDS011;7062;49.792;9.946;2024-01-07T11:43:58;7.68;;;5.80;;
13975;SDS011;7062;49.792;9.946;2024-01-07T11:46:25;6.55;;;5.90;;
13975;SDS011;7062;49.792;9.946;2024-01-07T11:48:58;6.32;;;5.57;;
13975;SDS011;7062;49.792;9.946;2024-01-07T11:51:28;6.72;;;5.45;;
13975;SDS011;7062;49.792;9.946;2024-01-07T11:53:55;7.20;;;5.70;;
13975;SDS011;7062;49.792;9.946;2024-01-07T11:56:25;5.45;;;4.93;;
13975;SDS011;7062;49.792;9.946;2024-01-07T11:58:54;7.65;;;5.35;;
13975;SDS011;7062;49.792;9.946;2024-01-07T12:01:23;6.57;;;4.93;;
13975;SDS011;7062;49.792;9.946;2024-01-07T12:03:50;7.47;;;6.00;;
13975;SDS011;7062;49.792;9.946;2024-01-07T12:06:16;8.10;;;5.37;;
13975;SDS011;7062;49.792;9.946;2024-01-07T12:08:44;8.33;;;5.57;;
13975;SDS011;7062;49.792;9.946;2024-01-07T12:11:11;7.57;;;5.20;;
13975;SDS011;7062;49.792;9.946;2024-01-07T12:13:38;6.25;;;5.47;;
13975;SDS011;7062;49.792;9.946;2024-01-07T12:16:05;5.90;;;5.03;;
13975;SDS011;7062;49.792;9.946;2024-01-07T12:18:30;6.22;;;5.25;;
13975;SDS011;7062;49.792;9.946;2024-01-07T12:20:57;7.32;;;5.88;;
13975;SDS011;7062;49.792;9.946;2024-01-07T12:23:23;7.93;;;5.40;;
13975;SDS011;7062;49.792;9.946;2024-01-07T12:25:50;6.80;;;5.38;;
13975;SDS011;7062;49.792;9.946;2024-01-07T12:28:17;7.65;;;5.72;;
13975;SDS011;7062;49.792;9.946;2024-01-07T12:30:48;7.05;;;5.00;;
13975;SDS011;7062;49.792;9.946;2024-01-07T12:33:19;6.45;;;5.50;;
13975;SDS011;7062;49.792;9.946;2024-01-07T12:35:45;7.35;;;5.90;;
13975;SDS011;7062;49.792;9.946;2024-01-07T12:38:12;8.20;;;5.57;;
13975;SDS011;7062;49.792;9.946;2024-01-07T12:40:38;6.93;;;5.70;;
13975;SDS011;7062;49.792;9.946;2024-01-07T12:43:04;9.93;;;6.03;;
13975;SDS011;7062;49.792;9.946;2024-01-07T12:45:32;7.45;;;6.57;;
13975;SDS011;7062;49.792;9.946;2024-01-07T12:47:58;6.80;;;5.15;;
13975;SDS011;7062;49.792;9.946;2024-01-07T12:50:27;5.97;;;4.70;;
13975;SDS011;7062;49.792;9.946;2024-01-07T12:52:55;5.15;;;4.10;;
13975;SDS011;7062;49.792;9.946;2024-01-07T12:55:21;7.55;;;4.90;;
13975;SDS011;7062;49.792;9.946;2024-01-07T12:57:47;6.13;;;4.93;;
13975;SDS011;7062;49.792;9.946;2024-01-07T13:00:13;7.70;;;4.97;;
13975;SDS011;7062;49.792;9.946;2024-01-07T13:02:39;6.07;;;4.63;;
13975;SDS011;7062;49.792;9.946;2024-01-07T13:05:07;6.50;;;5.03;;
13975;SDS011;7062;49.792;9.946;2024-01-07T13:07:33;6.93;;;4.40;;
13975;SDS011;7062;49.792;9.946;2024-01-07T13:10:00;5.60;;;4.18;;
13975;SDS011;7062;49.792;9.946;2024-01-07T13:12:26;6.03;;;4.73;;
13975;SDS011;7062;49.792;9.946;2024-01-07T13:14:52;4.10;;;3.67;;
13975;SDS011;7062;49.792;9.946;2024-01-07T13:17:18;5.32;;;4.40;;
13975;SDS011;7062;49.792;9.946;2024-01-07T13:19:44;5.93;;;4.50;;
13975;SDS011;7062;49.792;9.946;2024-01-07T13:22:09;6.53;;;4.20;;
13975;SDS011;7062;49.792;9.946;2024-01-07T13:24:35;6.75;;;4.43;;
13975;SDS011;7062;49.792;9.946;2024-01-07T13:27:01;5.30;;;3.90;;
13975;SDS011;7062;49.792;9.946;2024-01-07T13:29:27;5.23;;;3.93;;
13975;SDS011;7062;49.792;9.946;2024-01-07T13:31:53;5.63;;;4.13;;
13975;SDS011;7062;49.792;9.946;2024-01-07T13:34:19;7.37;;;4.53;;
13975;SDS011;7062;49.792;9.946;2024-01-07T13:36:44;5.63;;;4.07;;
13975;SDS011;7062;49.792;9.946;2024-01-07T13:39:10;6.00;;;4.50;;
13975;SDS011;7062;49.792;9.946;2024-01-07T13:41:36;4.87;;;3.60;;
13975;SDS011;7062;49.792;9.946;2024-01-07T13:44:02;7.87;;;4.00;;
13975;SDS011;7062;49.792;9.946;2024-01-07T13:46:32;5.28;;;4.28;;
13975;SDS011;7062;49.792;9.946;2024-01-07T13:48:58;5.37;;;4.03;;
13975;SDS011;7062;49.792;9.946;2024-01-07T13:51:24;6.65;;;4.60;;
13975;SDS011;7062;49.792;9.946;2024-01-07T13:53:51;5.40;;;3.92;;
13975;SDS011;7062;49.792;9.946;2024-01-07T13:56:17;6.73;;;4.37;;
13975;SDS011;7062;49.792;9.946;2024-01-07T13:58:43;5.60;;;3.67;;
13975;SDS011;7062;49.792;9.946;2024-01-07T14:01:11;5.18;;;3.88;;
13975;SDS011;7062;49.792;9.946;2024-01-07T14:03:37;5.38;;;4.07;;
13975;SDS011;7062;49.792;9.946;2024-01-07T14:06:03;6.03;;;3.23;;
13975;SDS011;7062;49.792;9.946;2024-01-07T14:08:29;5.23;;;3.47;;
13975;SDS011;7062;49.792;9.946;2024-01-07T14:10:55;8.07;;;3.90;;
13975;SDS011;7062;49.792;9.946;2024-01-07T14:13:20;5.20;;;3.07;;
13975;SDS011;7062;49.792;9.946;2024-01-07T14:15:47;5.05;;;3.20;;
13975;SDS011;7062;49.792;9.946;2024-01-07T14:18:13;6.85;;;3.70;;
13975;SDS011;7062;49.792;9.946;2024-01-07T14:20:41;4.68;;;3.60;;
13975;SDS011;7062;49.792;9.946;2024-01-07T14:23:07;4.60;;;3.28;;
13975;SDS011;7062;49.792;9.946;2024-01-07T14:25:33;5.18;;;3.63;;
13975;SDS011;7062;49.792;9.946;2024-01-07T14:27:58;5.70;;;3.60;;
13975;SDS011;7062;49.792;9.946;2024-01-07T14:30:24;5.57;;;3.40;;
13975;SDS011;7062;49.792;9.946;2024-01-07T14:32:50;5.63;;;3.60;;
13975;SDS011;7062;49.792;9.946;2024-01-07T14:35:15;6.67;;;3.37;;
13975;SDS011;7062;49.792;9.946;2024-01-07T14:37:41;5.43;;;3.13;;
13975;SDS011;7062;49.792;9.946;2024-01-07T14:40:07;4.87;;;3.60;;
13975;SDS011;7062;49.792;9.946;2024-01-07T14:42:33;3.78;;;2.47;;
13975;SDS011;7062;49.792;9.946;2024-01-07T14:44:59;5.53;;;3.33;;
13975;SDS011;7062;49.792;9.946;2024-01-07T14:47:25;4.73;;;3.30;;
13975;SDS011;7062;49.792;9.946;2024-01-07T14:49:50;5.37;;;3.20;;
13975;SDS011;7062;49.792;9.946;2024-01-07T14:52:16;4.57;;;3.40;;
13975;SDS011;7062;49.792;9.946;2024-01-07T14:54:42;5.77;;;3.73;;
13975;SDS011;7062;49.792;9.946;2024-01-07T14:57:08;4.82;;;3.30;;
13975;SDS011;7062;49.792;9.946;2024-01-07T14:59:34;5.20;;;3.30;;
13975;SDS011;7062;49.792;9.946;2024-01-07T15:02:03;5.03;;;3.13;;
13975;SDS011;7062;49.792;9.946;2024-01-07T15:04:29;5.03;;;3.00;;